createdAt,value
2023-04-20T19:07:23.335Z,50294.09
2023-04-20T19:12:28.040Z,50302.09
2023-04-20T19:17:32.516Z,50314.09
2023-04-20T19:22:38.339Z,50346.06
2023-04-20T19:27:42.607Z,50342.06
2023-04-20T19:32:47.101Z,50390.06
2023-04-20T19:37:52.909Z,50436.03
2023-04-20T19:42:58.341Z,50446.03
2023-04-20T19:48:03.067Z,50470.03
2023-04-20T19:53:09.095Z,50516.00
2023-04-20T19:58:13.637Z,50536.00
2023-04-20T20:03:17.961Z,50560.00
2023-04-20T20:08:23.930Z,50573.97
2023-04-20T20:13:28.172Z,50601.97
2023-04-20T20:18:32.600Z,50605.97
2023-04-20T20:23:38.618Z,50575.97
2023-04-20T20:28:43.319Z,50637.97
2023-04-20T20:33:47.444Z,50669.94
2023-04-20T20:38:53.613Z,50697.94
2023-04-20T20:43:58.251Z,50685.94
2023-04-20T20:49:02.685Z,50693.94
2023-04-20T20:54:08.331Z,50679.94
2023-04-20T20:59:12.762Z,50713.94
2023-04-20T21:04:17.133Z,50693.94
2023-04-20T21:09:23.065Z,50747.91
2023-04-20T21:14:27.538Z,50711.94
2023-04-20T21:19:31.736Z,50727.94
2023-04-20T21:24:37.776Z,50735.94
2023-04-20T21:29:42.045Z,50693.94
2023-04-20T21:34:46.382Z,50717.94
2023-04-20T21:39:52.640Z,50725.94
2023-04-20T21:44:57.030Z,50721.94
2023-04-20T21:50:01.619Z,50737.94
2023-04-20T21:55:08.135Z,50763.91
2023-04-20T22:00:14.128Z,50789.91
2023-04-20T22:05:22.812Z,50807.91
2023-04-20T22:10:28.898Z,50809.91
2023-04-20T22:15:33.479Z,50853.88
2023-04-20T22:20:38.222Z,50835.91
2023-04-20T22:25:44.566Z,50813.91
2023-04-20T22:30:49.146Z,50797.91
2023-04-20T22:35:53.872Z,50733.94
2023-04-20T22:41:00.587Z,50741.94
2023-04-20T22:46:04.956Z,50749.91
2023-04-20T22:51:09.453Z,50775.91
2023-04-20T22:56:15.426Z,50699.94
2023-04-20T23:01:19.730Z,50723.94
2023-04-20T23:06:23.946Z,50721.94
2023-04-20T23:11:30.077Z,50677.94
2023-04-20T23:16:34.586Z,50697.94
2023-04-20T23:21:39.105Z,50645.97
2023-04-20T23:26:44.721Z,50635.97
2023-04-20T23:31:49.137Z,50645.97
2023-04-20T23:36:54.460Z,50601.97
2023-04-20T23:42:00.316Z,50643.97
2023-04-20T23:47:04.529Z,50619.97
2023-04-20T23:52:08.681Z,50571.97
2023-04-20T23:57:14.372Z,50581.97
